Terminal Aerodrome Forecast
Issued by NWS Mobile, AL

Home | Current Version | Previous Version | Text Only | Print | Product List | Glossary On
Versions: 1 2 3 4 5 6 7 8 9 10 11 12 13 14 15 16 17 18 19 20 21 22 23 24 25 26 27 28 29 30 31
000
FTUS44 KMOB 041724
TAFMOB
TAF
KMOB 041724Z 0418/0518 VRB05KT P6SM FEW035 BKN040 BKN060
     FM042000 22004KT P6SM VCTS SCT040CB SCT250
     FM050300 VRB03KT P6SM SCT250
     FM051200 00000KT 4SM BR SCT250=

USA.gov is the U.S. government's official web portal to all federal, state and local government web resources and services.